Time;durP1;ratioP1;P1;durP2;ratioP2;P2;SDS_P1;SDS_P2;PMS_P1;PMS_P2;Temp;Humidity;BMP_temperature;BMP_pressure;BME280_temperature;BME280_humidity;BME280_pressure;Samples;Min_cycle;Max_cycle;Signal;HPM_P1;HPM_P2
2023/06/28 00:00:06;;;;;;;2.80;2.03;;;;;;;;;;5092662;28;20176;-80
2023/06/28 00:02:38;;;;;;;2.87;2.00;;;;;;;;;;5091090;28;20276;-80
2023/06/28 00:05:05;;;;;;;2.73;2.07;;;;;;;;;;5092288;28;20222;-80
2023/06/28 00:07:32;;;;;;;3.23;2.33;;;;;;;;;;5086001;28;20633;-81
2023/06/28 00:09:58;;;;;;;4.97;2.30;;;;;;;;;;5108410;28;21070;-80
2023/06/28 00:12:26;;;;;;;2.10;1.90;;;;;;;;;;5093458;28;20239;-80
2023/06/28 00:14:53;;;;;;;2.03;1.83;;;;;;;;;;5087971;28;20627;-80
2023/06/28 00:17:19;;;;;;;2.63;2.20;;;;;;;;;;5094016;28;20525;-80
2023/06/28 00:19:48;;;;;;;2.10;2.00;;;;;;;;;;5094451;28;20217;-80
2023/06/28 00:22:15;;;;;;;8.33;1.90;;;;;;;;;;5086873;28;20243;-81
2023/06/28 00:24:41;;;;;;;2.17;1.73;;;;;;;;;;5093553;28;20195;-80
2023/06/28 00:27:07;;;;;;;2.23;1.97;;;;;;;;;;5094151;28;20192;-80
2023/06/28 00:29:33;;;;;;;3.63;2.10;;;;;;;;;;5092877;28;20606;-80
2023/06/28 00:31:59;;;;;;;2.30;2.00;;;;;;;;;;5092084;28;20186;-80
2023/06/28 00:34:25;;;;;;;1.87;1.77;;;;;;;;;;5089083;28;20662;-80
2023/06/28 00:36:51;;;;;;;2.53;1.90;;;;;;;;;;5086572;28;20182;-81
2023/06/28 00:39:17;;;;;;;2.50;1.97;;;;;;;;;;5089961;28;20183;-80
2023/06/28 00:41:43;;;;;;;3.43;2.13;;;;;;;;;;5087068;28;20194;-81
2023/06/28 00:44:09;;;;;;;1.87;1.77;;;;;;;;;;5092372;28;20179;-80
2023/06/28 00:46:35;;;;;;;2.50;1.93;;;;;;;;;;5085129;28;20952;-80
2023/06/28 00:49:02;;;;;;;2.53;1.80;;;;;;;;;;5090266;28;20215;-81
2023/06/28 00:51:29;;;;;;;4.65;2.30;;;;;;;;;;5101440;28;20208;-80
2023/06/28 00:53:57;;;;;;;2.20;2.00;;;;;;;;;;5093754;28;20214;-81
2023/06/28 00:56:24;;;;;;;2.47;2.27;;;;;;;;;;5084308;28;20175;-80
2023/06/28 00:58:51;;;;;;;2.43;2.00;;;;;;;;;;5090495;28;20210;-81
2023/06/28 01:01:17;;;;;;;2.00;1.90;;;;;;;;;;5093274;28;20611;-81
2023/06/28 01:03:43;;;;;;;3.20;1.80;;;;;;;;;;5109024;28;20252;-81
2023/06/28 01:06:12;;;;;;;3.97;2.43;;;;;;;;;;5092242;28;20654;-80
2023/06/28 01:08:39;;;;;;;5.53;2.27;;;;;;;;;;5084064;28;20219;-80
2023/06/28 01:11:06;;;;;;;2.30;2.10;;;;;;;;;;5087534;28;20178;-81
2023/06/28 01:13:33;;;;;;;3.43;1.93;;;;;;;;;;5085559;28;20644;-81
2023/06/28 01:15:59;;;;;;;2.73;1.97;;;;;;;;;;5086305;28;20182;-80
2023/06/28 01:18:25;;;;;;;2.53;2.17;;;;;;;;;;5083448;28;20461;-80
2023/06/28 01:20:54;;;;;;;3.97;2.30;;;;;;;;;;5082753;28;20226;-81
2023/06/28 01:23:20;;;;;;;1.83;1.73;;;;;;;;;;5072688;28;20200;-81
2023/06/28 01:25:46;;;;;;;2.23;1.97;;;;;;;;;;5080946;28;20204;-80
2023/06/28 01:28:13;;;;;;;1.90;1.77;;;;;;;;;;5081971;28;20203;-81
2023/06/28 01:30:39;;;;;;;1.93;1.83;;;;;;;;;;5083981;28;20172;-80
2023/06/28 01:33:06;;;;;;;2.57;1.90;;;;;;;;;;5087308;28;20275;-80
2023/06/28 01:35:32;;;;;;;3.70;2.30;;;;;;;;;;5090362;28;20466;-81
2023/06/28 01:37:59;;;;;;;3.27;2.10;;;;;;;;;;5080728;28;20723;-81
2023/06/28 01:40:25;;;;;;;3.43;2.07;;;;;;;;;;5082515;28;20480;-81
2023/06/28 01:42:51;;;;;;;2.83;2.20;;;;;;;;;;5087173;28;20966;-80
2023/06/28 01:45:17;;;;;;;3.33;2.40;;;;;;;;;;5080455;28;20304;-80
2023/06/28 01:47:43;;;;;;;2.63;2.13;;;;;;;;;;5087147;28;20602;-81
2023/06/28 01:50:10;;;;;;;2.30;2.10;;;;;;;;;;5074279;28;20650;-80
2023/06/28 01:52:36;;;;;;;4.80;2.27;;;;;;;;;;5080856;28;20219;-82
2023/06/28 01:55:02;;;;;;;2.40;2.10;;;;;;;;;;5074166;28;20204;-81
2023/06/28 01:57:28;;;;;;;3.33;1.87;;;;;;;;;;5084961;28;20206;-82
2023/06/28 01:59:54;;;;;;;2.60;1.97;;;;;;;;;;5083918;28;20171;-81
2023/06/28 02:02:20;;;;;;;2.33;1.80;;;;;;;;;;5081896;28;20176;-81
2023/06/28 02:04:48;;;;;;;2.57;2.37;;;;;;;;;;5088523;28;20235;-81
2023/06/28 02:07:14;;;;;;;2.37;2.17;;;;;;;;;;5083983;28;20175;-81
2023/06/28 02:09:40;;;;;;;3.73;2.33;;;;;;;;;;5082217;28;20204;-81
2023/06/28 02:12:06;;;;;;;2.33;2.07;;;;;;;;;;5085857;28;20196;-81
2023/06/28 02:14:32;;;;;;;3.63;2.40;;;;;;;;;;5084022;28;20605;-80
2023/06/28 02:16:58;;;;;;;2.80;2.10;;;;;;;;;;5080296;28;20181;-81
2023/06/28 02:19:24;;;;;;;2.57;2.37;;;;;;;;;;5077699;28;20192;-80
2023/06/28 02:21:50;;;;;;;2.60;2.40;;;;;;;;;;5084472;28;20197;-80
2023/06/28 02:24:16;;;;;;;2.63;2.43;;;;;;;;;;5089275;28;20247;-81
2023/06/28 02:26:42;;;;;;;2.30;2.10;;;;;;;;;;5104682;28;20501;-81
2023/06/28 02:29:08;;;;;;;2.30;1.83;;;;;;;;;;5089472;28;20195;-81
2023/06/28 02:31:34;;;;;;;2.80;2.27;;;;;;;;;;5087846;28;20228;-81
2023/06/28 02:34:00;;;;;;;2.20;2.00;;;;;;;;;;5079036;28;20182;-81
2023/06/28 02:36:26;;;;;;;3.10;2.20;;;;;;;;;;5088501;28;20187;-81
2023/06/28 02:38:53;;;;;;;2.73;2.27;;;;;;;;;;5079755;28;20187;-80
2023/06/28 02:41:19;;;;;;;3.47;2.10;;;;;;;;;;5082702;28;20207;-79
2023/06/28 02:43:45;;;;;;;5.80;2.63;;;;;;;;;;5086555;28;20182;-81
2023/06/28 02:46:11;;;;;;;2.90;2.13;;;;;;;;;;5087749;28;20198;-79
2023/06/28 02:48:37;;;;;;;2.20;2.00;;;;;;;;;;5088224;28;20224;-80
2023/06/28 02:51:12;;;;;;;2.47;2.10;;;;;;;;;;5085999;28;20646;-80
2023/06/28 02:53:38;;;;;;;3.00;2.20;;;;;;;;;;5084322;28;20638;-80
2023/06/28 02:56:04;;;;;;;3.00;2.60;;;;;;;;;;5075521;28;20339;-80
2023/06/28 02:58:30;;;;;;;3.07;2.00;;;;;;;;;;5082733;28;20242;-80
2023/06/28 03:00:57;;;;;;;2.20;2.00;;;;;;;;;;5089371;28;20660;-80
2023/06/28 03:03:23;;;;;;;2.87;2.57;;;;;;;;;;5093230;28;20682;-80
2023/06/28 03:05:49;;;;;;;2.10;1.80;;;;;;;;;;5081105;28;20608;-80
2023/06/28 03:08:15;;;;;;;2.77;2.10;;;;;;;;;;5087727;28;20202;-80
2023/06/28 03:10:41;;;;;;;2.40;2.20;;;;;;;;;;5084537;28;20182;-80
2023/06/28 03:13:07;;;;;;;3.00;2.40;;;;;;;;;;5089693;28;20181;-79
2023/06/28 03:15:33;;;;;;;2.53;2.13;;;;;;;;;;5090562;28;20185;-79
2023/06/28 03:17:59;;;;;;;3.80;1.87;;;;;;;;;;5093002;28;20187;-79
2023/06/28 03:20:27;;;;;;;2.20;2.00;;;;;;;;;;5096412;28;20184;-80
2023/06/28 03:22:53;;;;;;;3.13;2.43;;;;;;;;;;5094739;28;20288;-79
2023/06/28 03:25:19;;;;;;;3.53;2.17;;;;;;;;;;5087138;28;20298;-80
2023/06/28 03:27:45;;;;;;;2.60;2.20;;;;;;;;;;5085072;28;20195;-79
2023/06/28 03:30:11;;;;;;;4.67;2.30;;;;;;;;;;5107751;28;20741;-80
2023/06/28 03:32:37;;;;;;;2.13;2.00;;;;;;;;;;5085980;28;20188;-79
2023/06/28 03:35:04;;;;;;;2.30;2.00;;;;;;;;;;5094145;28;20294;-80
2023/06/28 03:37:30;;;;;;;2.63;2.43;;;;;;;;;;5094765;28;20234;-79
2023/06/28 03:39:56;;;;;;;2.33;1.97;;;;;;;;;;5085109;28;20258;-79
2023/06/28 03:42:22;;;;;;;3.50;2.33;;;;;;;;;;5094102;28;20538;-79
2023/06/28 03:44:48;;;;;;;2.90;2.10;;;;;;;;;;5106166;28;20193;-80
2023/06/28 03:47:14;;;;;;;3.97;2.00;;;;;;;;;;5090481;28;20207;-80
2023/06/28 03:49:40;;;;;;;2.77;1.80;;;;;;;;;;5078221;28;20220;-80
2023/06/28 03:52:07;;;;;;;4.03;2.50;;;;;;;;;;5092747;28;20215;-79
2023/06/28 03:54:33;;;;;;;3.20;2.30;;;;;;;;;;5087459;28;20201;-79
2023/06/28 03:56:59;;;;;;;2.27;2.07;;;;;;;;;;5085774;28;20176;-80
2023/06/28 03:59:25;;;;;;;5.50;2.23;;;;;;;;;;5089680;28;20255;-79
2023/06/28 04:01:51;;;;;;;3.40;2.27;;;;;;;;;;5089163;28;20194;-80
2023/06/28 04:04:17;;;;;;;2.67;2.40;;;;;;;;;;5088495;28;20310;-79
2023/06/28 04:06:43;;;;;;;3.27;2.53;;;;;;;;;;5086382;28;20206;-79
2023/06/28 04:09:09;;;;;;;3.47;3.17;;;;;;;;;;5086518;28;20426;-79
2023/06/28 04:11:35;;;;;;;2.83;2.47;;;;;;;;;;5083753;28;20231;-79
2023/06/28 04:14:01;;;;;;;3.33;2.60;;;;;;;;;;5086490;28;20527;-80
2023/06/28 04:16:27;;;;;;;2.87;2.07;;;;;;;;;;5089401;28;20178;-80
2023/06/28 04:18:53;;;;;;;2.80;2.33;;;;;;;;;;5091267;28;20189;-80
2023/06/28 04:21:19;;;;;;;3.33;2.87;;;;;;;;;;5082381;28;20206;-80
2023/06/28 04:23:45;;;;;;;2.40;2.20;;;;;;;;;;5090286;28;20186;-79
2023/06/28 04:26:12;;;;;;;2.80;2.60;;;;;;;;;;5083165;28;20191;-80
2023/06/28 04:28:38;;;;;;;2.40;2.20;;;;;;;;;;5085303;28;20227;-80
2023/06/28 04:31:04;;;;;;;2.47;2.27;;;;;;;;;;5089185;28;20175;-80
2023/06/28 04:33:35;;;;;;;2.67;2.47;;;;;;;;;;5093405;28;20293;-79
2023/06/28 04:36:01;;;;;;;2.10;1.90;;;;;;;;;;5093316;28;20494;-80
2023/06/28 04:38:27;;;;;;;2.77;2.30;;;;;;;;;;5093031;28;20184;-79
2023/06/28 04:40:56;;;;;;;2.70;2.50;;;;;;;;;;5089586;28;20753;-79
2023/06/28 04:43:22;;;;;;;2.80;2.40;;;;;;;;;;5092931;28;20638;-80
2023/06/28 04:45:48;;;;;;;3.20;2.10;;;;;;;;;;5090856;28;20316;-80
2023/06/28 04:48:14;;;;;;;2.60;2.40;;;;;;;;;;5089516;28;20234;-80
2023/06/28 04:50:41;;;;;;;2.47;2.17;;;;;;;;;;5077246;28;20217;-80
2023/06/28 04:53:07;;;;;;;2.50;2.30;;;;;;;;;;5090413;28;20191;-80
2023/06/28 04:55:34;;;;;;;2.57;2.37;;;;;;;;;;5084784;28;20224;-79
2023/06/28 04:58:02;;;;;;;3.20;2.67;;;;;;;;;;5091309;28;20269;-79
2023/06/28 05:00:28;;;;;;;3.10;2.90;;;;;;;;;;5090215;28;20196;-80
2023/06/28 05:02:56;;;;;;;3.17;2.37;;;;;;;;;;5094394;28;20267;-80
2023/06/28 05:05:22;;;;;;;3.07;2.57;;;;;;;;;;5093289;28;20209;-80
2023/06/28 05:07:48;;;;;;;2.13;2.03;;;;;;;;;;5095441;28;20263;-80
2023/06/28 05:10:14;;;;;;;2.10;1.90;;;;;;;;;;5093225;28;20292;-80
2023/06/28 05:12:40;;;;;;;2.87;2.60;;;;;;;;;;5091547;28;20198;-80
2023/06/28 05:15:07;;;;;;;2.80;2.60;;;;;;;;;;5095281;28;20198;-80
2023/06/28 05:17:33;;;;;;;3.73;2.37;;;;;;;;;;5095678;28;20563;-80
2023/06/28 05:19:59;;;;;;;2.77;2.50;;;;;;;;;;5089652;28;20178;-79
2023/06/28 05:22:26;;;;;;;4.13;2.77;;;;;;;;;;5081437;28;20192;-79
2023/06/28 05:24:52;;;;;;;2.50;2.30;;;;;;;;;;5089634;28;20213;-81
2023/06/28 05:27:18;;;;;;;2.97;2.50;;;;;;;;;;5079676;28;20552;-80
2023/06/28 05:29:44;;;;;;;2.33;2.13;;;;;;;;;;5084083;28;20246;-80
2023/06/28 05:32:13;;;;;;;3.07;2.53;;;;;;;;;;5084307;28;20174;-80
2023/06/28 05:34:39;;;;;;;2.80;2.60;;;;;;;;;;5081676;28;20613;-80
2023/06/28 05:37:06;;;;;;;2.97;2.57;;;;;;;;;;5088533;28;20281;-79
2023/06/28 05:39:32;;;;;;;4.10;2.60;;;;;;;;;;5101837;28;20184;-80
2023/06/28 05:41:58;;;;;;;2.30;2.10;;;;;;;;;;5090337;28;20512;-79
2023/06/28 05:44:24;;;;;;;2.70;2.50;;;;;;;;;;5091495;28;20691;-80
2023/06/28 05:46:52;;;;;;;3.57;2.20;;;;;;;;;;5085911;28;20209;-79
2023/06/28 05:49:18;;;;;;;4.47;2.53;;;;;;;;;;5086065;28;20206;-80
2023/06/28 05:51:44;;;;;;;4.53;2.40;;;;;;;;;;5081960;28;20177;-79
2023/06/28 05:54:10;;;;;;;3.20;2.43;;;;;;;;;;5091250;28;20196;-79
2023/06/28 05:56:36;;;;;;;5.47;2.53;;;;;;;;;;5089297;28;20180;-79
2023/06/28 05:59:02;;;;;;;2.90;2.60;;;;;;;;;;5092046;28;20180;-80
2023/06/28 06:01:29;;;;;;;2.80;2.50;;;;;;;;;;5090545;28;20619;-79
2023/06/28 06:03:55;;;;;;;4.07;2.43;;;;;;;;;;5090297;28;20227;-80
2023/06/28 06:06:21;;;;;;;3.33;2.47;;;;;;;;;;5083057;28;20185;-79
2023/06/28 06:08:47;;;;;;;3.60;2.50;;;;;;;;;;5086058;28;20208;-79
2023/06/28 06:11:13;;;;;;;2.60;2.40;;;;;;;;;;5084888;28;20243;-80
2023/06/28 06:13:39;;;;;;;2.70;2.20;;;;;;;;;;5085559;28;20183;-79
2023/06/28 06:16:05;;;;;;;4.57;2.30;;;;;;;;;;5082843;28;20197;-80
2023/06/28 06:18:31;;;;;;;2.47;2.27;;;;;;;;;;5086770;28;20187;-79
2023/06/28 06:20:57;;;;;;;4.03;2.40;;;;;;;;;;5081185;28;20225;-79
2023/06/28 06:23:23;;;;;;;2.00;1.87;;;;;;;;;;5082242;28;20191;-79
2023/06/28 06:25:49;;;;;;;3.30;2.37;;;;;;;;;;5087743;28;20188;-79
2023/06/28 06:28:15;;;;;;;4.47;2.27;;;;;;;;;;5086359;28;20263;-80
2023/06/28 06:30:41;;;;;;;2.93;2.20;;;;;;;;;;5081139;28;20195;-80
2023/06/28 06:33:07;;;;;;;2.77;2.10;;;;;;;;;;5085494;28;20173;-80
2023/06/28 06:35:33;;;;;;;2.50;2.20;;;;;;;;;;5079442;28;20178;-81
2023/06/28 06:37:59;;;;;;;2.60;2.03;;;;;;;;;;5087915;28;20179;-79
2023/06/28 06:40:25;;;;;;;3.30;2.90;;;;;;;;;;5085962;28;20192;-79
2023/06/28 06:42:51;;;;;;;2.53;2.13;;;;;;;;;;5105933;28;20176;-79
2023/06/28 06:45:19;;;;;;;2.93;2.50;;;;;;;;;;5085820;28;20195;-79
2023/06/28 06:47:45;;;;;;;2.27;2.07;;;;;;;;;;5084439;28;20194;-81
2023/06/28 06:50:13;;;;;;;3.27;2.00;;;;;;;;;;5087090;28;20537;-80
2023/06/28 06:52:39;;;;;;;2.40;2.10;;;;;;;;;;5086745;28;20257;-82
2023/06/28 06:55:05;;;;;;;2.60;2.23;;;;;;;;;;5075703;28;20212;-80
2023/06/28 06:57:32;;;;;;;4.37;2.10;;;;;;;;;;5083165;28;20178;-80
2023/06/28 06:59:58;;;;;;;5.20;2.47;;;;;;;;;;5077984;28;20176;-81
2023/06/28 07:02:24;;;;;;;3.70;2.23;;;;;;;;;;5083207;28;20216;-81
2023/06/28 07:04:50;;;;;;;2.97;2.47;;;;;;;;;;5090337;28;20215;-81
2023/06/28 07:07:16;;;;;;;2.27;2.00;;;;;;;;;;5095466;28;20187;-81
2023/06/28 07:09:42;;;;;;;3.43;2.27;;;;;;;;;;5086663;28;20223;-80
2023/06/28 07:12:09;;;;;;;7.87;2.73;;;;;;;;;;5083715;28;20176;-80
2023/06/28 07:14:35;;;;;;;2.53;2.33;;;;;;;;;;5085777;28;20240;-81
2023/06/28 07:17:01;;;;;;;2.57;2.37;;;;;;;;;;5088092;28;20300;-81
2023/06/28 07:19:27;;;;;;;2.67;2.10;;;;;;;;;;5085416;28;20275;-81
2023/06/28 07:21:53;;;;;;;2.93;2.17;;;;;;;;;;5088600;28;20628;-81
2023/06/28 07:24:19;;;;;;;2.33;2.00;;;;;;;;;;5084498;28;20180;-81
2023/06/28 07:26:45;;;;;;;3.07;2.37;;;;;;;;;;5091608;28;20183;-81
2023/06/28 07:29:11;;;;;;;3.10;2.80;;;;;;;;;;5107919;28;20512;-82
2023/06/28 07:31:37;;;;;;;2.90;2.27;;;;;;;;;;5085396;28;20200;-81
2023/06/28 07:34:04;;;;;;;3.60;2.47;;;;;;;;;;5086487;28;20241;-81
2023/06/28 07:36:34;;;;;;;2.50;2.30;;;;;;;;;;5092732;28;20174;-82
2023/06/28 07:39:00;;;;;;;2.17;1.93;;;;;;;;;;5083549;28;20170;-81
2023/06/28 07:41:26;;;;;;;2.37;2.17;;;;;;;;;;5082801;28;20517;-81
2023/06/28 07:43:52;;;;;;;2.60;2.10;;;;;;;;;;5082965;28;20172;-81
2023/06/28 07:46:18;;;;;;;3.37;2.37;;;;;;;;;;5081531;28;20182;-82
2023/06/28 07:48:48;;;;;;;2.20;2.00;;;;;;;;;;5079771;28;20234;-82
2023/06/28 07:51:14;;;;;;;2.30;2.10;;;;;;;;;;5082109;28;20340;-81
2023/06/28 07:53:42;;;;;;;2.67;2.20;;;;;;;;;;5086213;28;20675;-81
2023/06/28 07:56:08;;;;;;;2.33;2.13;;;;;;;;;;5087344;28;20440;-81
2023/06/28 07:58:36;;;;;;;2.77;2.03;;;;;;;;;;5086775;28;20276;-82
2023/06/28 08:01:03;;;;;;;2.20;2.00;;;;;;;;;;5085107;28;20309;-82
2023/06/28 08:03:29;;;;;;;2.60;2.40;;;;;;;;;;5086819;28;20230;-80
2023/06/28 08:05:55;;;;;;;2.30;1.90;;;;;;;;;;5092124;28;20182;-81
2023/06/28 08:08:21;;;;;;;3.00;2.30;;;;;;;;;;5086597;28;20215;-81
2023/06/28 08:10:47;;;;;;;3.10;2.30;;;;;;;;;;5092776;28;20179;-81
2023/06/28 08:13:13;;;;;;;2.20;1.97;;;;;;;;;;5089255;28;20193;-81
2023/06/28 08:15:39;;;;;;;2.87;2.17;;;;;;;;;;5091093;28;20169;-82
2023/06/28 08:18:08;;;;;;;3.53;2.13;;;;;;;;;;5089759;28;20180;-81
2023/06/28 08:20:34;;;;;;;3.10;2.20;;;;;;;;;;5079875;28;20179;-82
2023/06/28 08:23:00;;;;;;;2.80;2.10;;;;;;;;;;5088828;28;20177;-81
2023/06/28 08:25:26;;;;;;;2.57;2.27;;;;;;;;;;5080201;28;20178;-82
2023/06/28 08:27:52;;;;;;;2.40;2.20;;;;;;;;;;5086364;28;20177;-82
2023/06/28 08:30:18;;;;;;;2.10;1.90;;;;;;;;;;5090849;28;20176;-81
2023/06/28 08:32:45;;;;;;;3.30;1.97;;;;;;;;;;5092138;28;20186;-81
2023/06/28 08:35:12;;;;;;;2.00;1.90;;;;;;;;;;5086189;28;20177;-81
2023/06/28 08:37:38;;;;;;;2.70;2.43;;;;;;;;;;5085433;28;20172;-81
2023/06/28 08:40:05;;;;;;;2.53;2.00;;;;;;;;;;5090610;28;20267;-81
2023/06/28 08:42:34;;;;;;;2.07;1.93;;;;;;;;;;5083594;28;20202;-82
2023/06/28 08:45:01;;;;;;;1.93;1.83;;;;;;;;;;5083832;28;20176;-84
2023/06/28 08:47:31;;;;;;;2.40;2.20;;;;;;;;;;5087032;28;20251;-81
2023/06/28 08:49:57;;;;;;;2.93;2.07;;;;;;;;;;5083054;28;20232;-81
2023/06/28 08:52:24;;;;;;;2.60;2.00;;;;;;;;;;5090299;28;20259;-81
2023/06/28 08:54:50;;;;;;;2.17;1.97;;;;;;;;;;5093029;28;20207;-81
2023/06/28 08:57:16;;;;;;;3.23;2.23;;;;;;;;;;5085245;28;20274;-81
2023/06/28 08:59:43;;;;;;;3.00;2.30;;;;;;;;;;5080063;28;20176;-80
2023/06/28 09:02:09;;;;;;;2.43;2.07;;;;;;;;;;5090902;28;20229;-81
2023/06/28 09:04:36;;;;;;;2.63;2.43;;;;;;;;;;5084092;28;20224;-81
2023/06/28 09:07:02;;;;;;;2.67;2.33;;;;;;;;;;5082949;28;20310;-81
2023/06/28 09:09:29;;;;;;;2.37;1.87;;;;;;;;;;5086063;28;20228;-81
2023/06/28 09:11:55;;;;;;;2.37;2.17;;;;;;;;;;5091530;28;20278;-81
2023/06/28 09:14:21;;;;;;;3.93;2.50;;;;;;;;;;5081754;28;20184;-81
2023/06/28 09:16:47;;;;;;;3.20;2.47;;;;;;;;;;5093811;28;20264;-81
2023/06/28 09:19:13;;;;;;;3.63;2.53;;;;;;;;;;5082308;28;20175;-81
2023/06/28 09:21:40;;;;;;;2.27;2.07;;;;;;;;;;5090855;28;20187;-81
2023/06/28 09:24:11;;;;;;;2.20;2.00;;;;;;;;;;5089407;28;20464;-81
2023/06/28 09:26:37;;;;;;;5.33;2.50;;;;;;;;;;5081609;28;20183;-80
2023/06/28 09:29:11;;;;;;;4.10;2.37;;;;;;;;;;5090097;28;20203;-81
2023/06/28 09:31:44;;;;;;;4.50;2.10;;;;;;;;;;5081553;28;20176;-81
2023/06/28 09:34:10;;;;;;;3.77;2.30;;;;;;;;;;5087069;28;20173;-81
2023/06/28 09:36:37;;;;;;;3.23;2.33;;;;;;;;;;5086570;28;20212;-81
2023/06/28 09:39:04;;;;;;;2.60;2.30;;;;;;;;;;5086015;28;20187;-80
2023/06/28 09:41:39;;;;;;;2.30;2.10;;;;;;;;;;5089266;28;20262;-81
2023/06/28 09:44:05;;;;;;;2.70;2.00;;;;;;;;;;5088825;28;20177;-81
2023/06/28 09:46:34;;;;;;;3.10;2.20;;;;;;;;;;5091257;28;20176;-82
2023/06/28 09:49:00;;;;;;;2.43;2.23;;;;;;;;;;5088081;28;20208;-82
2023/06/28 09:51:26;;;;;;;2.47;2.13;;;;;;;;;;5088208;28;20314;-82
2023/06/28 09:53:53;;;;;;;2.50;2.30;;;;;;;;;;5085646;28;20222;-83
2023/06/28 09:56:20;;;;;;;3.80;2.47;;;;;;;;;;5085773;28;20222;-83
2023/06/28 09:58:49;;;;;;;3.37;2.00;;;;;;;;;;5077559;28;20254;-83
2023/06/28 10:01:16;;;;;;;2.83;2.37;;;;;;;;;;5084181;28;20272;-81
2023/06/28 10:03:44;;;;;;;3.00;2.70;;;;;;;;;;5089422;28;20231;-82
2023/06/28 10:06:10;;;;;;;3.67;2.60;;;;;;;;;;5086892;28;20172;-80
2023/06/28 10:08:36;;;;;;;4.87;2.53;;;;;;;;;;5086142;28;20283;-81
2023/06/28 10:11:05;;;;;;;3.47;2.43;;;;;;;;;;5083047;28;20181;-82
2023/06/28 10:13:31;;;;;;;4.30;2.93;;;;;;;;;;5083406;28;20200;-81
2023/06/28 10:16:02;;;;;;;2.90;2.03;;;;;;;;;;5084922;28;20211;-82
2023/06/28 10:18:28;;;;;;;3.13;2.40;;;;;;;;;;5086970;28;20180;-82
2023/06/28 10:20:54;;;;;;;3.47;2.67;;;;;;;;;;5081915;28;20183;-83
2023/06/28 10:23:21;;;;;;;2.90;2.20;;;;;;;;;;5090159;28;20203;-83
2023/06/28 10:25:47;;;;;;;2.67;2.20;;;;;;;;;;5080500;28;20187;-83
2023/06/28 10:28:14;;;;;;;2.97;2.47;;;;;;;;;;5084643;28;20279;-82
2023/06/28 10:30:40;;;;;;;3.07;2.77;;;;;;;;;;5085905;28;20183;-84
2023/06/28 10:33:06;;;;;;;4.77;2.60;;;;;;;;;;5087110;28;20644;-84
2023/06/28 10:35:33;;;;;;;3.40;3.10;;;;;;;;;;5091595;28;20187;-83
2023/06/28 10:37:59;;;;;;;2.53;2.30;;;;;;;;;;5086847;28;20164;-84
2023/06/28 10:40:26;;;;;;;3.10;2.30;;;;;;;;;;5082386;28;20189;-81
2023/06/28 10:42:52;;;;;;;3.07;2.13;;;;;;;;;;5086677;28;20762;-83
2023/06/28 10:45:31;;;;;;;4.27;3.50;;;;;;;;;;5083017;28;20550;-83
2023/06/28 10:47:57;;;;;;;2.57;2.30;;;;;;;;;;5082871;28;20453;-82
2023/06/28 10:50:24;;;;;;;3.17;2.47;;;;;;;;;;5085623;28;20181;-82
2023/06/28 10:52:54;;;;;;;5.50;2.80;;;;;;;;;;5085887;28;20173;-83
2023/06/28 10:55:20;;;;;;;2.50;2.20;;;;;;;;;;5080488;28;20207;-83
2023/06/28 10:57:46;;;;;;;3.23;2.37;;;;;;;;;;5088179;28;20251;-82
2023/06/28 11:00:31;;;;;;;3.47;3.17;;;;;;;;;;5086501;28;20208;-83
2023/06/28 11:03:02;;;;;;;4.70;2.63;;;;;;;;;;5085265;28;20751;-83
2023/06/28 11:05:48;;;;;;;3.00;2.43;;;;;;;;;;5077804;28;20190;-82
2023/06/28 11:08:15;;;;;;;5.00;2.60;;;;;;;;;;5080433;28;20198;-82
2023/06/28 11:10:48;;;;;;;3.80;2.80;;;;;;;;;;5085352;28;20620;-82
2023/06/28 11:13:15;;;;;;;5.63;2.70;;;;;;;;;;5093386;28;20206;-82
2023/06/28 11:15:44;;;;;;;3.23;2.63;;;;;;;;;;5093151;28;20202;-82
2023/06/28 11:18:16;;;;;;;3.27;2.73;;;;;;;;;;5085702;28;20206;-82
2023/06/28 11:20:52;;;;;;;4.53;2.90;;;;;;;;;;5094678;28;20171;-82
2023/06/28 11:23:44;;;;;;;2.57;2.33;;;;;;;;;;5094559;28;20170;-81
2023/06/28 11:26:16;;;;;;;3.80;2.40;;;;;;;;;;5073384;28;20708;-82
2023/06/28 11:28:54;;;;;;;5.20;2.73;;;;;;;;;;5087126;28;20213;-81
2023/06/28 11:31:24;;;;;;;3.43;3.13;;;;;;;;;;5093072;28;20262;-82
2023/06/28 11:33:52;;;;;;;3.70;2.77;;;;;;;;;;5087836;28;20174;-82
2023/06/28 11:36:18;;;;;;;5.47;3.13;;;;;;;;;;5087781;28;20778;-82
2023/06/28 11:38:45;;;;;;;2.80;2.50;;;;;;;;;;5086039;28;20185;-82
2023/06/28 11:41:14;;;;;;;3.10;2.60;;;;;;;;;;5090512;28;20181;-81
2023/06/28 11:43:40;;;;;;;5.27;2.87;;;;;;;;;;5087361;28;20200;-80
2023/06/28 11:46:07;;;;;;;3.70;2.73;;;;;;;;;;5081026;28;20174;-81
2023/06/28 11:48:33;;;;;;;3.77;2.80;;;;;;;;;;5097859;28;20219;-81
2023/06/28 11:51:05;;;;;;;4.97;2.60;;;;;;;;;;5094696;28;20204;-83
2023/06/28 11:53:31;;;;;;;3.67;3.03;;;;;;;;;;5092323;28;20669;-82
2023/06/28 11:55:58;;;;;;;3.27;2.90;;;;;;;;;;5091020;28;20246;-86
2023/06/28 11:58:34;;;;;;;4.20;3.13;;;;;;;;;;5090720;28;20193;-81
2023/06/28 12:01:01;;;;;;;4.47;3.00;;;;;;;;;;5084783;28;20279;-82
2023/06/28 12:03:30;;;;;;;6.27;3.47;;;;;;;;;;5087277;28;20217;-82
2023/06/28 12:05:56;;;;;;;4.63;3.10;;;;;;;;;;5081930;28;20181;-82
2023/06/28 12:08:22;;;;;;;4.73;2.67;;;;;;;;;;5087352;28;20215;-82
2023/06/28 12:10:48;;;;;;;11.90;3.50;;;;;;;;;;5085390;28;20184;-81
2023/06/28 12:13:23;;;;;;;8.33;3.13;;;;;;;;;;5086759;28;20172;-81
2023/06/28 12:15:50;;;;;;;7.30;3.30;;;;;;;;;;5084308;28;20184;-82
2023/06/28 12:18:16;;;;;;;6.00;3.30;;;;;;;;;;5082482;28;20186;-82
2023/06/28 12:20:43;;;;;;;5.43;3.30;;;;;;;;;;5083620;28;20242;-81
2023/06/28 12:23:12;;;;;;;6.72;4.13;;;;;;;;;;5073352;28;20497;-82
2023/06/28 12:25:42;;;;;;;9.10;4.55;;;;;;;;;;5087869;28;20489;-86
2023/06/28 12:28:08;;;;;;;8.20;4.00;;;;;;;;;;5090851;28;20173;-85
2023/06/28 12:30:35;;;;;;;7.03;3.97;;;;;;;;;;5088100;28;20290;-84
2023/06/28 12:33:06;;;;;;;6.43;4.00;;;;;;;;;;5083882;28;20178;-84
2023/06/28 12:35:32;;;;;;;6.90;4.33;;;;;;;;;;5094731;28;20164;-83
2023/06/28 12:37:58;;;;;;;9.17;4.63;;;;;;;;;;5098988;28;20193;-88
2023/06/28 12:40:32;;;;;;;5.23;3.30;;;;;;;;;;5090135;28;20192;-85
2023/06/28 12:43:11;;;;;;;10.73;3.97;;;;;;;;;;5087003;28;20197;-83
2023/06/28 12:45:45;;;;;;;6.93;4.00;;;;;;;;;;5086553;28;20637;-85
2023/06/28 12:48:13;;;;;;;6.37;3.63;;;;;;;;;;5086341;28;20289;-83
2023/06/28 12:50:39;;;;;;;5.47;3.87;;;;;;;;;;5084614;28;20262;-82
2023/06/28 12:53:05;;;;;;;6.87;4.07;;;;;;;;;;5087860;28;20176;-84
2023/06/28 12:55:31;;;;;;;7.73;4.00;;;;;;;;;;5079766;28;20196;-83
2023/06/28 12:57:57;;;;;;;9.60;4.27;;;;;;;;;;5088320;28;20221;-84
2023/06/28 13:00:23;;;;;;;7.23;3.63;;;;;;;;;;5091412;28;20192;-84
2023/06/28 13:02:49;;;;;;;9.33;3.93;;;;;;;;;;5091276;28;20241;-83
2023/06/28 13:05:15;;;;;;;9.60;4.00;;;;;;;;;;5086175;28;20207;-83
2023/06/28 13:07:41;;;;;;;7.43;4.33;;;;;;;;;;5082616;28;20187;-85
2023/06/28 13:10:09;;;;;;;9.93;4.97;;;;;;;;;;5088004;28;20207;-83
2023/06/28 13:12:35;;;;;;;8.33;3.50;;;;;;;;;;5085510;28;20180;-84
2023/06/28 13:15:01;;;;;;;6.53;4.00;;;;;;;;;;5084364;28;20188;-83
2023/06/28 13:17:27;;;;;;;7.03;4.17;;;;;;;;;;5087721;28;20193;-82
2023/06/28 13:19:53;;;;;;;7.83;4.03;;;;;;;;;;5090149;28;20227;-83
2023/06/28 13:22:19;;;;;;;5.37;3.57;;;;;;;;;;5088130;28;20207;-83
2023/06/28 13:24:45;;;;;;;6.50;3.80;;;;;;;;;;5083976;28;20183;-83
2023/06/28 13:27:11;;;;;;;7.47;3.63;;;;;;;;;;5093342;28;20193;-83
2023/06/28 13:29:37;;;;;;;8.17;3.87;;;;;;;;;;5087100;28;20203;-83
2023/06/28 13:32:03;;;;;;;6.67;4.00;;;;;;;;;;5082344;28;20270;-84
2023/06/28 13:34:29;;;;;;;8.73;4.53;;;;;;;;;;5091951;28;20650;-83
2023/06/28 13:36:55;;;;;;;9.17;4.17;;;;;;;;;;5090771;28;20211;-84
2023/06/28 13:39:21;;;;;;;6.80;3.80;;;;;;;;;;5089170;28;20176;-84
2023/06/28 13:41:48;;;;;;;8.17;3.70;;;;;;;;;;5088753;28;20180;-84
2023/06/28 13:44:14;;;;;;;9.27;4.50;;;;;;;;;;5094460;28;20268;-84
2023/06/28 13:46:40;;;;;;;8.40;3.93;;;;;;;;;;5092827;28;20228;-84
2023/06/28 13:49:06;;;;;;;8.43;4.10;;;;;;;;;;5109103;28;20219;-84
2023/06/28 13:51:32;;;;;;;8.07;4.33;;;;;;;;;;5086091;28;20208;-84
2023/06/28 13:53:59;;;;;;;5.50;3.67;;;;;;;;;;5081946;28;20601;-84
2023/06/28 13:56:25;;;;;;;9.40;3.67;;;;;;;;;;5086441;28;20211;-83
2023/06/28 13:58:51;;;;;;;9.27;3.90;;;;;;;;;;5084731;28;20180;-83
2023/06/28 14:01:17;;;;;;;8.83;4.87;;;;;;;;;;5086699;28;20268;-84
2023/06/28 14:03:43;;;;;;;6.83;3.73;;;;;;;;;;5083234;28;20219;-83
2023/06/28 14:06:09;;;;;;;11.33;4.03;;;;;;;;;;5089076;28;20516;-86
2023/06/28 14:08:35;;;;;;;6.03;3.93;;;;;;;;;;5092884;28;20223;-84
2023/06/28 14:11:01;;;;;;;5.37;3.30;;;;;;;;;;5084749;28;20180;-86
2023/06/28 14:13:27;;;;;;;7.90;4.13;;;;;;;;;;5087174;28;20211;-82
2023/06/28 14:15:53;;;;;;;9.57;4.33;;;;;;;;;;5083143;28;20180;-83
2023/06/28 14:18:19;;;;;;;9.57;4.13;;;;;;;;;;5080195;28;20177;-83
2023/06/28 14:20:45;;;;;;;8.80;4.07;;;;;;;;;;5083750;28;20857;-84
2023/06/28 14:23:11;;;;;;;7.70;5.10;;;;;;;;;;5085742;28;20592;-83
2023/06/28 14:25:37;;;;;;;6.10;3.90;;;;;;;;;;5080980;28;20196;-83
2023/06/28 14:28:03;;;;;;;5.90;3.70;;;;;;;;;;5086399;28;20241;-84
2023/06/28 14:30:29;;;;;;;8.53;3.77;;;;;;;;;;5086922;28;20207;-83
2023/06/28 14:32:56;;;;;;;7.20;4.03;;;;;;;;;;5082866;28;20173;-83
2023/06/28 14:35:22;;;;;;;5.60;3.80;;;;;;;;;;5083543;28;20202;-83
2023/06/28 14:37:49;;;;;;;6.50;4.27;;;;;;;;;;5084919;28;20221;-86
2023/06/28 14:40:15;;;;;;;4.77;4.00;;;;;;;;;;5086568;28;20176;-86